createdAt,value
2023-03-16T00:02:04.711Z,76.70
2023-03-16T00:04:31.901Z,76.80
2023-03-16T00:06:58.733Z,76.70
2023-03-16T00:09:31.407Z,76.70
2023-03-16T00:11:59.378Z,76.80
2023-03-16T00:14:26.878Z,76.60
2023-03-16T00:16:53.728Z,76.60
2023-03-16T00:19:22.846Z,76.60
2023-03-16T00:21:53.096Z,76.70
2023-03-16T00:24:20.147Z,76.60
2023-03-16T00:26:47.525Z,76.70
2023-03-16T00:29:14.707Z,76.50
2023-03-16T00:31:45.034Z,76.70
2023-03-16T00:34:12.393Z,76.50
2023-03-16T00:36:39.265Z,76.50
2023-03-16T00:39:06.931Z,76.40
2023-03-16T00:41:37.900Z,76.60
2023-03-16T00:44:05.706Z,76.40
2023-03-16T00:46:32.524Z,76.40
2023-03-16T00:48:59.363Z,76.40
2023-03-16T00:51:26.070Z,76.20
2023-03-16T00:53:52.831Z,76.20
2023-03-16T00:56:19.724Z,76.40
2023-03-16T00:58:46.392Z,76.20
2023-03-16T01:01:16.807Z,76.20
2023-03-16T01:03:43.721Z,76.30
2023-03-16T01:06:12.939Z,76.10
2023-03-16T01:08:40.875Z,76.10
2023-03-16T01:11:13.651Z,76.10
2023-03-16T01:13:40.896Z,76.00
2023-03-16T01:16:08.263Z,76.20
2023-03-16T01:18:35.439Z,76.40
2023-03-16T01:21:04.223Z,76.20
2023-03-16T01:23:31.416Z,76.40
2023-03-16T01:25:59.155Z,76.20
2023-03-16T01:28:28.170Z,76.20
2023-03-16T01:30:59.109Z,76.10
2023-03-16T01:33:27.288Z,75.90
2023-03-16T01:35:59.197Z,76.10
2023-03-16T01:38:26.049Z,75.90
2023-03-16T01:40:54.578Z,76.00
2023-03-16T01:43:23.992Z,75.90
2023-03-16T01:46:05.453Z,76.00
2023-03-16T01:49:00.904Z,76.00
2023-03-16T01:51:47.816Z,76.00
2023-03-16T01:54:28.175Z,75.80
2023-03-16T01:57:11.660Z,75.80
2023-03-16T01:59:40.131Z,75.80
2023-03-16T02:02:08.238Z,76.00
2023-03-16T02:04:54.223Z,76.00
2023-03-16T02:07:24.610Z,76.20
2023-03-16T02:09:55.851Z,76.50
2023-03-16T02:12:22.667Z,76.50
2023-03-16T02:14:50.764Z,76.40
2023-03-16T02:17:29.010Z,76.10
2023-03-16T02:20:34.302Z,76.20
2023-03-16T02:23:02.779Z,76.10
2023-03-16T02:25:36.856Z,76.00
2023-03-16T02:28:15.415Z,75.80
2023-03-16T02:30:42.291Z,76.00
2023-03-16T02:33:09.585Z,76.10
2023-03-16T02:35:36.254Z,76.10
2023-03-16T02:38:03.246Z,75.70
2023-03-16T02:40:32.367Z,75.80
2023-03-16T02:42:59.029Z,75.70
2023-03-16T02:45:28.890Z,75.70
2023-03-16T02:47:57.667Z,75.60
2023-03-16T02:50:24.374Z,75.60
2023-03-16T02:52:50.983Z,77.20
2023-03-16T02:55:17.663Z,76.50
2023-03-16T02:57:44.349Z,76.40
2023-03-16T03:00:16.926Z,76.40
2023-03-16T03:02:44.362Z,75.70
2023-03-16T03:05:11.975Z,75.80
2023-03-16T03:07:38.851Z,75.60
2023-03-16T03:10:06.949Z,75.70
2023-03-16T03:12:34.348Z,75.50
2023-03-16T03:15:01.361Z,75.40
2023-03-16T03:17:30.107Z,75.30
2023-03-16T03:20:02.298Z,75.50
2023-03-16T03:22:28.987Z,75.70
2023-03-16T03:24:55.702Z,75.50
2023-03-16T03:27:22.540Z,75.70
2023-03-16T03:29:49.359Z,75.80
2023-03-16T03:32:16.308Z,76.00
2023-03-16T03:34:42.951Z,76.40
2023-03-16T03:37:10.056Z,77.10
2023-03-16T03:39:36.727Z,77.20
2023-03-16T03:42:03.439Z,77.30
2023-03-16T03:44:32.720Z,77.40
2023-03-16T03:46:59.415Z,77.10
2023-03-16T03:49:26.437Z,77.00
2023-03-16T03:51:53.106Z,77.80
2023-03-16T03:54:19.790Z,78.40
2023-03-16T03:56:46.402Z,77.80
2023-03-16T03:59:13.143Z,77.60
2023-03-16T04:01:39.990Z,77.70
2023-03-16T04:04:06.693Z,77.40
2023-03-16T04:06:33.364Z,77.30
2023-03-16T04:09:01.289Z,77.20
2023-03-16T04:11:27.922Z,76.90
2023-03-16T04:13:54.597Z,77.00
2023-03-16T04:16:22.088Z,76.60
2023-03-16T04:18:48.881Z,76.60
2023-03-16T04:21:17.274Z,76.50
2023-03-16T04:23:44.497Z,76.60
2023-03-16T04:26:11.344Z,76.30
2023-03-16T04:28:38.123Z,76.10
2023-03-16T04:31:10.560Z,76.00
2023-03-16T04:33:38.813Z,76.00
2023-03-16T04:36:06.803Z,76.00
2023-03-16T04:38:35.174Z,76.00
2023-03-16T04:41:03.357Z,75.90
2023-03-16T04:43:34.228Z,76.00
2023-03-16T04:46:02.678Z,75.80
2023-03-16T04:48:30.360Z,75.70
2023-03-16T04:50:57.069Z,75.70
2023-03-16T04:53:23.798Z,75.60
2023-03-16T04:55:51.192Z,75.70
2023-03-16T04:58:17.839Z,75.80
2023-03-16T05:00:45.445Z,75.50
2023-03-16T05:03:12.172Z,75.50
2023-03-16T05:05:39.288Z,75.30
2023-03-16T05:08:06.934Z,75.30
2023-03-16T05:10:34.473Z,75.30
2023-03-16T05:13:01.298Z,75.10
2023-03-16T05:15:28.463Z,75.10
2023-03-16T05:17:58.209Z,75.10
2023-03-16T05:20:25.555Z,75.10
2023-03-16T05:22:52.296Z,75.20
2023-03-16T05:25:20.239Z,75.20
2023-03-16T05:27:50.317Z,75.30
2023-03-16T05:30:18.500Z,75.30
2023-03-16T05:32:45.614Z,75.40
2023-03-16T05:35:13.673Z,75.40
2023-03-16T05:37:41.808Z,75.40
2023-03-16T05:40:16.889Z,75.70
2023-03-16T05:42:48.005Z,75.40
2023-03-16T05:45:16.197Z,75.50
2023-03-16T05:47:43.979Z,75.40
2023-03-16T05:50:12.970Z,75.70
2023-03-16T05:52:40.289Z,75.50
2023-03-16T05:55:09.342Z,75.50
2023-03-16T05:57:36.159Z,75.70
2023-03-16T06:00:13.142Z,75.50
2023-03-16T06:02:40.284Z,75.50
2023-03-16T06:05:07.531Z,75.70
2023-03-16T06:07:34.929Z,75.50
2023-03-16T06:10:01.660Z,75.70
2023-03-16T06:12:28.335Z,75.50
2023-03-16T06:14:54.987Z,75.70
2023-03-16T06:17:21.848Z,75.70
2023-03-16T06:19:48.593Z,75.50
2023-03-16T06:22:15.285Z,75.40
2023-03-16T06:24:42.042Z,75.70
2023-03-16T06:27:08.868Z,75.50
2023-03-16T06:29:35.809Z,75.70
2023-03-16T06:32:02.474Z,75.70
2023-03-16T06:34:29.137Z,75.70
2023-03-16T06:36:55.890Z,75.70
2023-03-16T06:39:22.613Z,75.50
2023-03-16T06:41:49.370Z,75.80
2023-03-16T06:44:16.057Z,75.70
2023-03-16T06:46:42.979Z,75.70
2023-03-16T06:49:11.005Z,75.80
2023-03-16T06:51:37.658Z,75.80
2023-03-16T06:54:04.353Z,75.80
2023-03-16T06:56:31.808Z,75.70
2023-03-16T06:58:58.552Z,75.80
2023-03-16T07:01:25.331Z,75.80
2023-03-16T07:03:52.077Z,75.90
2023-03-16T07:06:18.771Z,75.80
2023-03-16T07:08:45.525Z,75.80
2023-03-16T07:11:12.316Z,75.60
2023-03-16T07:13:38.954Z,75.70
2023-03-16T07:16:05.923Z,75.70
2023-03-16T07:18:32.807Z,75.70
2023-03-16T07:20:59.696Z,75.70
2023-03-16T07:23:26.706Z,75.70
2023-03-16T07:25:53.587Z,75.70
2023-03-16T07:28:20.893Z,75.80
2023-03-16T07:31:02.507Z,75.80
2023-03-16T07:33:32.157Z,75.80
2023-03-16T07:35:59.253Z,75.80
2023-03-16T07:38:44.462Z,75.80
2023-03-16T07:41:11.223Z,75.80
2023-03-16T07:43:58.303Z,75.80
2023-03-16T07:46:43.565Z,75.80
2023-03-16T07:49:29.110Z,75.80
2023-03-16T07:52:14.618Z,75.90
2023-03-16T07:55:00.068Z,75.90
2023-03-16T07:57:47.910Z,76.00
2023-03-16T08:00:33.945Z,76.10
2023-03-16T08:03:19.294Z,76.00
2023-03-16T08:06:05.500Z,76.00
2023-03-16T08:08:51.104Z,76.00
2023-03-16T08:11:36.648Z,76.00
2023-03-16T08:14:22.078Z,76.00
2023-03-16T08:17:07.464Z,76.00
2023-03-16T08:19:53.443Z,76.00
2023-03-16T08:22:38.809Z,76.00
2023-03-16T08:25:24.544Z,76.00
2023-03-16T08:28:10.936Z,76.00
2023-03-16T08:30:58.388Z,77.70
2023-03-16T08:33:45.531Z,77.60
2023-03-16T08:36:31.271Z,77.20
2023-03-16T08:39:16.420Z,77.30
2023-03-16T08:42:02.580Z,77.30
2023-03-16T08:44:50.882Z,77.20
2023-03-16T08:47:36.837Z,77.30
2023-03-16T08:50:22.429Z,77.40
2023-03-16T08:53:07.804Z,77.20
2023-03-16T08:55:53.348Z,77.10
2023-03-16T08:58:39.398Z,77.20
2023-03-16T09:01:25.602Z,77.20
2023-03-16T09:03:52.775Z,77.20
2023-03-16T09:06:37.534Z,77.10
2023-03-16T09:09:04.496Z,77.20
2023-03-16T09:11:33.659Z,77.10
2023-03-16T09:14:00.366Z,77.10
2023-03-16T09:16:28.033Z,77.20
2023-03-16T09:18:55.842Z,77.10
2023-03-16T09:21:23.257Z,77.10
2023-03-16T09:23:50.811Z,77.20
2023-03-16T09:26:17.621Z,77.10
2023-03-16T09:28:44.501Z,77.10
2023-03-16T09:31:17.783Z,77.10
2023-03-16T09:33:45.180Z,77.20
2023-03-16T09:36:13.407Z,77.20
2023-03-16T09:38:40.905Z,77.10
2023-03-16T09:41:10.649Z,77.20
2023-03-16T09:43:40.167Z,77.20
2023-03-16T09:46:13.721Z,77.20
2023-03-16T09:48:41.178Z,77.50
2023-03-16T09:51:20.213Z,77.30
2023-03-16T09:53:48.903Z,77.10
2023-03-16T09:56:33.575Z,76.80
2023-03-16T09:59:00.500Z,76.80
2023-03-16T10:01:43.040Z,76.80
2023-03-16T10:04:32.381Z,76.80
2023-03-16T10:07:29.509Z,76.80
2023-03-16T10:10:21.372Z,76.80
2023-03-16T10:12:52.484Z,76.80
2023-03-16T10:15:29.058Z,76.90
2023-03-16T10:18:07.111Z,76.80
2023-03-16T10:20:34.917Z,77.00
2023-03-16T10:23:16.987Z,76.90
2023-03-16T10:25:46.087Z,76.90
2023-03-16T10:28:20.130Z,76.80
2023-03-16T10:30:50.070Z,76.90
2023-03-16T10:33:32.144Z,76.90
2023-03-16T10:36:05.525Z,76.80
2023-03-16T10:38:50.636Z,76.80
2023-03-16T10:41:23.030Z,76.90
2023-03-16T10:43:57.570Z,76.90
2023-03-16T10:46:28.815Z,76.80
2023-03-16T10:49:00.232Z,77.00
2023-03-16T10:51:30.890Z,76.80
2023-03-16T10:54:14.171Z,76.80
2023-03-16T10:56:41.027Z,76.90
2023-03-16T10:59:35.171Z,76.90
2023-03-16T11:02:14.541Z,76.90
2023-03-16T11:04:41.894Z,77.10
2023-03-16T11:07:16.213Z,76.90
2023-03-16T11:09:43.124Z,76.90
2023-03-16T11:12:15.522Z,76.80
2023-03-16T11:14:45.526Z,76.80
2023-03-16T11:17:19.193Z,76.80
2023-03-16T11:19:56.552Z,76.80
2023-03-16T11:22:25.338Z,76.80
2023-03-16T11:25:06.938Z,76.90
2023-03-16T11:27:54.126Z,76.80
2023-03-16T11:30:30.909Z,76.80
2023-03-16T11:33:00.389Z,76.80
2023-03-16T11:36:00.490Z,77.00
2023-03-16T11:38:37.568Z,77.20
2023-03-16T11:41:25.661Z,77.20
2023-03-16T11:44:09.194Z,77.00
2023-03-16T11:46:48.053Z,77.00
2023-03-16T11:49:50.322Z,76.90
2023-03-16T11:52:55.530Z,76.80
2023-03-16T11:56:07.926Z,76.80
2023-03-16T11:58:49.848Z,76.80
2023-03-16T12:01:43.067Z,76.80
2023-03-16T12:04:31.458Z,76.80
2023-03-16T12:07:23.236Z,76.80
2023-03-16T12:09:58.370Z,76.90
2023-03-16T12:12:49.298Z,77.50
2023-03-16T12:15:38.355Z,78.60
2023-03-16T12:18:17.091Z,79.20
2023-03-16T12:20:56.229Z,79.30
2023-03-16T12:23:39.340Z,78.90
2023-03-16T12:26:06.303Z,78.50
2023-03-16T12:28:33.413Z,78.00
2023-03-16T12:31:12.404Z,77.90
2023-03-16T12:34:09.795Z,77.80
2023-03-16T12:37:06.282Z,77.80
2023-03-16T12:40:07.609Z,77.80
2023-03-16T12:43:23.876Z,77.70
2023-03-16T12:46:14.164Z,77.50
2023-03-16T12:48:46.038Z,77.60
2023-03-16T12:51:12.758Z,77.50
2023-03-16T12:53:54.954Z,77.50
2023-03-16T12:56:45.470Z,77.50
2023-03-16T12:59:21.652Z,77.60
2023-03-16T13:01:57.724Z,77.50
2023-03-16T13:04:44.354Z,77.50
2023-03-16T13:07:19.337Z,77.70
2023-03-16T13:09:57.485Z,77.50
2023-03-16T13:12:32.845Z,77.50
2023-03-16T13:14:59.699Z,77.40
2023-03-16T13:17:32.410Z,77.50
2023-03-16T13:20:18.203Z,77.60
2023-03-16T13:23:08.267Z,77.40
2023-03-16T13:25:42.777Z,77.50
2023-03-16T13:28:17.081Z,77.50
2023-03-16T13:30:48.564Z,77.50
2023-03-16T13:33:23.094Z,77.50
2023-03-16T13:35:53.123Z,77.60
2023-03-16T13:38:25.684Z,77.70
2023-03-16T13:40:55.315Z,77.50
2023-03-16T13:43:29.881Z,77.80
2023-03-16T13:45:56.588Z,77.60
2023-03-16T13:48:23.254Z,78.00
2023-03-16T13:50:57.817Z,78.40
2023-03-16T13:53:30.924Z,78.30
2023-03-16T13:56:00.032Z,78.00
2023-03-16T13:58:33.617Z,78.00
2023-03-16T14:01:03.602Z,77.90
2023-03-16T14:03:38.218Z,78.00
2023-03-16T14:06:07.072Z,77.90
2023-03-16T14:08:34.578Z,77.80
2023-03-16T14:11:02.259Z,77.70
2023-03-16T14:13:39.207Z,77.90
2023-03-16T14:16:16.509Z,77.70
2023-03-16T14:18:48.885Z,77.80
2023-03-16T14:21:30.468Z,77.80
2023-03-16T14:23:59.461Z,77.80
2023-03-16T14:26:26.352Z,78.00
2023-03-16T14:28:57.333Z,78.20
2023-03-16T14:31:32.903Z,78.10
2023-03-16T14:34:04.829Z,77.80
2023-03-16T14:36:37.754Z,77.90
2023-03-16T14:39:16.886Z,78.30
2023-03-16T14:41:45.610Z,78.30
2023-03-16T14:44:21.330Z,78.00
2023-03-16T14:46:48.804Z,77.70
2023-03-16T14:49:21.111Z,77.80
2023-03-16T14:51:50.363Z,77.80
2023-03-16T14:54:18.957Z,77.90
2023-03-16T14:56:53.526Z,77.60
2023-03-16T14:59:20.810Z,77.70
2023-03-16T15:01:49.515Z,77.60
2023-03-16T15:04:21.168Z,77.70
2023-03-16T15:06:48.467Z,77.50
2023-03-16T15:09:35.126Z,77.50
2023-03-16T15:12:02.005Z,77.90
2023-03-16T15:14:47.191Z,78.30
2023-03-16T15:17:13.926Z,78.70
2023-03-16T15:19:41.046Z,78.70
2023-03-16T15:22:12.438Z,80.10
2023-03-16T15:24:39.670Z,81.10
2023-03-16T15:27:18.403Z,80.90
2023-03-16T15:29:45.031Z,81.20
2023-03-16T15:32:17.058Z,80.70
2023-03-16T15:34:46.443Z,79.60
2023-03-16T15:37:15.371Z,79.40
2023-03-16T15:39:42.822Z,79.80
2023-03-16T15:42:19.397Z,79.70
2023-03-16T15:45:10.987Z,81.00
2023-03-16T15:47:56.218Z,81.30
2023-03-16T15:50:25.929Z,81.00
2023-03-16T15:53:01.976Z,81.00
2023-03-16T15:55:34.488Z,81.00
2023-03-16T15:58:02.493Z,80.80
2023-03-16T16:00:33.118Z,81.00
2023-03-16T16:03:00.720Z,80.70
2023-03-16T16:05:27.914Z,80.40
2023-03-16T16:07:55.347Z,80.60
2023-03-16T16:10:22.489Z,80.30
2023-03-16T16:12:51.393Z,79.90
2023-03-16T16:15:36.859Z,79.40
2023-03-16T16:18:31.795Z,79.00
2023-03-16T16:21:00.018Z,78.70
2023-03-16T16:23:27.316Z,79.00
2023-03-16T16:26:07.995Z,79.30
2023-03-16T16:28:35.228Z,78.80
2023-03-16T16:31:02.293Z,78.60
2023-03-16T16:33:34.508Z,78.40
2023-03-16T16:36:04.707Z,78.40
2023-03-16T16:38:31.932Z,78.40
2023-03-16T16:41:02.556Z,78.20
2023-03-16T16:43:48.236Z,78.60
2023-03-16T16:46:21.069Z,78.60
2023-03-16T16:49:35.374Z,78.30
2023-03-16T16:52:02.250Z,78.70
2023-03-16T16:54:31.121Z,78.80
2023-03-16T16:56:59.633Z,78.50
2023-03-16T16:59:31.180Z,78.30
2023-03-16T17:01:58.662Z,78.30
2023-03-16T17:04:27.640Z,78.10
2023-03-16T17:06:58.619Z,78.00
2023-03-16T17:09:27.189Z,78.00
2023-03-16T17:11:58.666Z,78.10
2023-03-16T17:14:28.179Z,78.00
2023-03-16T17:16:55.366Z,78.10
2023-03-16T17:19:25.078Z,78.20
2023-03-16T17:21:53.321Z,78.40
2023-03-16T17:24:20.053Z,78.30
2023-03-16T17:26:50.383Z,78.10
2023-03-16T17:29:33.006Z,78.20
2023-03-16T17:32:01.703Z,78.30
2023-03-16T17:34:30.743Z,78.10
2023-03-16T17:36:57.520Z,78.00
2023-03-16T17:39:25.663Z,78.10
2023-03-16T17:42:06.105Z,78.10
2023-03-16T17:44:53.304Z,77.90
2023-03-16T17:47:27.386Z,78.10
2023-03-16T17:49:55.232Z,77.80
2023-03-16T17:52:26.739Z,78.00
2023-03-16T17:54:54.235Z,78.00
2023-03-16T17:57:31.859Z,77.90
2023-03-16T18:00:05.299Z,78.00
2023-03-16T18:02:57.402Z,78.10
2023-03-16T18:05:33.081Z,78.10
2023-03-16T18:08:14.000Z,78.20
2023-03-16T18:10:41.420Z,78.30
2023-03-16T18:13:23.363Z,78.10
2023-03-16T18:15:50.733Z,78.00
2023-03-16T18:18:21.322Z,78.00
2023-03-16T18:20:50.646Z,78.10
2023-03-16T18:23:20.831Z,77.90
2023-03-16T18:25:49.934Z,77.90
2023-03-16T18:28:18.271Z,78.10
2023-03-16T18:30:47.565Z,78.10
2023-03-16T18:33:23.723Z,77.90
2023-03-16T18:35:53.150Z,77.90
2023-03-16T18:38:39.216Z,77.90
2023-03-16T18:41:31.663Z,77.90
2023-03-16T18:44:02.204Z,77.90
2023-03-16T18:46:34.143Z,77.90
2023-03-16T18:49:12.795Z,77.90
2023-03-16T18:51:40.274Z,77.90
2023-03-16T18:54:24.342Z,77.90
2023-03-16T18:56:51.677Z,77.90
2023-03-16T18:59:18.454Z,77.90
2023-03-16T19:01:46.894Z,77.90
2023-03-16T19:04:26.364Z,77.90
2023-03-16T19:06:54.949Z,78.00
2023-03-16T19:09:24.608Z,78.20
2023-03-16T19:11:52.780Z,78.10
2023-03-16T19:14:25.122Z,78.20
2023-03-16T19:16:52.992Z,78.20
2023-03-16T19:19:21.887Z,78.30
2023-03-16T19:22:06.346Z,78.30
2023-03-16T19:24:48.636Z,78.30
2023-03-16T19:27:27.757Z,78.30
2023-03-16T19:29:55.234Z,78.40
2023-03-16T19:32:22.587Z,78.70
2023-03-16T19:34:49.488Z,78.70
2023-03-16T19:37:19.605Z,78.80
2023-03-16T19:39:46.506Z,78.60
2023-03-16T19:42:28.664Z,78.50
2023-03-16T19:44:56.021Z,78.50
2023-03-16T19:47:31.454Z,78.40
2023-03-16T19:49:58.956Z,78.40
2023-03-16T19:52:28.133Z,78.30
2023-03-16T19:54:54.828Z,78.40
2023-03-16T19:57:21.652Z,78.40
2023-03-16T19:59:52.291Z,78.30
2023-03-16T20:02:28.427Z,78.30
2023-03-16T20:04:55.705Z,78.30
2023-03-16T20:07:22.821Z,78.30
2023-03-16T20:09:49.729Z,78.30
2023-03-16T20:12:22.578Z,78.30
2023-03-16T20:14:51.221Z,78.30
2023-03-16T20:17:23.539Z,78.30
2023-03-16T20:19:51.176Z,78.30
2023-03-16T20:22:23.108Z,78.30
2023-03-16T20:24:50.951Z,78.30
2023-03-16T20:27:19.884Z,78.20
2023-03-16T20:29:47.193Z,78.30
2023-03-16T20:32:25.746Z,78.30
2023-03-16T20:34:53.877Z,78.20
2023-03-16T20:37:29.297Z,78.30
2023-03-16T20:39:58.106Z,78.70
2023-03-16T20:42:33.767Z,78.60
2023-03-16T20:45:01.519Z,78.50
2023-03-16T20:47:30.939Z,78.40
2023-03-16T20:49:58.172Z,78.50
2023-03-16T20:52:30.473Z,78.40
2023-03-16T20:54:57.947Z,78.30
2023-03-16T20:57:27.088Z,78.40
2023-03-16T20:59:55.451Z,78.40
2023-03-16T21:02:36.016Z,78.40
2023-03-16T21:05:06.065Z,78.40
2023-03-16T21:07:33.217Z,78.40
2023-03-16T21:09:59.881Z,78.30
2023-03-16T21:12:32.661Z,78.30
2023-03-16T21:15:02.370Z,78.40
2023-03-16T21:17:34.388Z,78.40
2023-03-16T21:20:01.304Z,78.50
2023-03-16T21:22:35.011Z,78.30
2023-03-16T21:25:01.848Z,78.40
2023-03-16T21:27:31.840Z,78.40
2023-03-16T21:30:03.108Z,78.40
2023-03-16T21:32:30.869Z,78.40
2023-03-16T21:34:57.689Z,78.40
2023-03-16T21:37:24.546Z,78.40
2023-03-16T21:39:52.144Z,78.50
2023-03-16T21:42:19.690Z,78.60
2023-03-16T21:44:47.092Z,78.50
2023-03-16T21:47:23.226Z,78.60
2023-03-16T21:49:50.208Z,78.50
2023-03-16T21:52:23.660Z,78.90
2023-03-16T21:54:52.513Z,78.80
2023-03-16T21:57:19.751Z,78.70
2023-03-16T21:59:46.998Z,78.70
2023-03-16T22:02:30.599Z,78.70
2023-03-16T22:04:57.934Z,78.70
2023-03-16T22:07:25.380Z,78.60
2023-03-16T22:09:52.066Z,78.60
2023-03-16T22:12:18.782Z,78.70
2023-03-16T22:14:45.822Z,78.70
2023-03-16T22:17:22.148Z,78.60
2023-03-16T22:19:48.883Z,78.60
2023-03-16T22:22:17.311Z,78.60
2023-03-16T22:24:44.127Z,78.60
2023-03-16T22:27:20.581Z,78.60
2023-03-16T22:29:49.794Z,78.60
2023-03-16T22:32:20.197Z,78.70
2023-03-16T22:34:55.900Z,78.70
2023-03-16T22:37:25.986Z,78.70
2023-03-16T22:39:53.692Z,78.60
2023-03-16T22:42:32.719Z,78.60
2023-03-16T22:44:59.742Z,78.70
2023-03-16T22:47:28.773Z,78.60
2023-03-16T22:49:55.926Z,78.80
2023-03-16T22:52:28.090Z,78.90
2023-03-16T22:54:55.305Z,79.10
2023-03-16T22:57:22.381Z,79.20
2023-03-16T22:59:50.873Z,79.30
2023-03-16T23:02:26.488Z,79.00
2023-03-16T23:04:53.343Z,78.90
2023-03-16T23:07:20.104Z,78.70
2023-03-16T23:09:48.340Z,78.70
2023-03-16T23:12:18.842Z,78.60
2023-03-16T23:14:45.542Z,78.60
2023-03-16T23:17:20.743Z,78.60
2023-03-16T23:19:50.527Z,78.50
2023-03-16T23:22:17.620Z,78.50
2023-03-16T23:24:44.258Z,78.50
2023-03-16T23:27:21.321Z,78.60
2023-03-16T23:29:48.662Z,78.70
2023-03-16T23:32:16.945Z,79.00
2023-03-16T23:34:43.907Z,79.10
2023-03-16T23:37:11.314Z,79.00
2023-03-16T23:39:38.341Z,78.90
2023-03-16T23:42:05.514Z,78.80
2023-03-16T23:44:32.351Z,78.70
2023-03-16T23:46:59.752Z,78.70
2023-03-16T23:49:30.567Z,78.80
2023-03-16T23:51:59.275Z,78.80
2023-03-16T23:54:29.650Z,78.80
2023-03-16T23:56:57.111Z,78.80
2023-03-16T23:59:24.440Z,78.70
